Observation data for Pampa on 02/16/2017      Previous  Date  Next       Current Mesonet Observations  Soil Data  Daily Summary Page  Observations in Plain Language
KPMS 160600Z 21008KT 02/M02 A3006 RMK A01 T00171015  RH  080%=      5-min Rain = 0
KPMS 160605Z 21008KT 02/M02 A3006 RMK A01 T00171015  RH  080%=      5-min Rain = 0
KPMS 160610Z 21009KT 02/M02 A3006 RMK A01 T00171016  RH  080%=      5-min Rain = 0
KPMS 160615Z 21009KT 02/M02 A3006 RMK A01 T00181016  RH  079%=      5-min Rain = 0
KPMS 160620Z 21009KT 02/M02 A3006 RMK A01 T00191016  RH  078%=      5-min Rain = 0
KPMS 160625Z 21008KT 02/M02 A3006 RMK A01 T00211016  RH  077%=      5-min Rain = 0
KPMS 160630Z 22008KT 02/M02 A3006 RMK A01 T00231017  RH  076%=      5-min Rain = 0
KPMS 160635Z 21008KT 02/M02 A3006 RMK A01 T00231017  RH  076%=      5-min Rain = 0
KPMS 160640Z 22007KT 02/M02 A3005 RMK A01 T00221017  RH  076%=      5-min Rain = 0
KPMS 160645Z 22007KT 02/M02 A3005 RMK A01 T00231018  RH  075%=      5-min Rain = 0
KPMS 160650Z 22007KT 02/M02 A3005 RMK A01 T00241018  RH  075%=      5-min Rain = 0
KPMS 160655Z 22008KT 02/M02 A3005 RMK A01 T00241018  RH  075%=      5-min Rain = 0
KPMS 160700Z 22008KT 03/M02 A3005 RMK A01 T00261017  RH  074%=      5-min Rain = 0
KPMS 160705Z 21008KT 03/M02 A3004 RMK A01 T00261017  RH  074%=      5-min Rain = 0
KPMS 160710Z 22007KT 03/M02 A3004 RMK A01 T00251017  RH  075%=      5-min Rain = 0
KPMS 160715Z 22008KT 02/M02 A3004 RMK A01 T00241017  RH  075%=      5-min Rain = 0
KPMS 160720Z 22008KT 02/M02 A3004 RMK A01 T00241017  RH  075%=      5-min Rain = 0
KPMS 160725Z 22009KT 03/M02 A3004 RMK A01 T00271016  RH  074%=      5-min Rain = 0
KPMS 160730Z 22009KT 03/M02 A3004 RMK A01 T00281016  RH  074%=      5-min Rain = 0
KPMS 160735Z 22009KT 03/M02 A3004 RMK A01 T00291016  RH  073%=      5-min Rain = 0
KPMS 160740Z 22008KT 03/M02 A3004 RMK A01 T00291016  RH  073%=      5-min Rain = 0
KPMS 160745Z 22008KT 03/M02 A3004 RMK A01 T00281016  RH  074%=      5-min Rain = 0
KPMS 160750Z 22009KT 03/M02 A3004 RMK A01 T00271016  RH  074%=      5-min Rain = 0
KPMS 160755Z 22009KT 03/M02 A3003 RMK A01 T00281016  RH  074%=      5-min Rain = 0
KPMS 160800Z 22010KT 03/M02 A3003 RMK A01 T00291016  RH  073%=      5-min Rain = 0
KPMS 160805Z 22010KT 03/M02 A3003 RMK A01 T00291016  RH  073%=      5-min Rain = 0
KPMS 160810Z 22010KT 03/M02 A3003 RMK A01 T00301016  RH  073%=      5-min Rain = 0
KPMS 160815Z 22010KT 03/M02 A3003 RMK A01 T00301016  RH  072%=      5-min Rain = 0
KPMS 160820Z 22009KT 03/M02 A3003 RMK A01 T00301016  RH  073%=      5-min Rain = 0
KPMS 160825Z 22009KT 03/M02 A3003 RMK A01 T00291016  RH  073%=      5-min Rain = 0
KPMS 160830Z 22009KT 03/M02 A3002 RMK A01 T00291016  RH  073%=      5-min Rain = 0
KPMS 160835Z 22009KT 03/M02 A3002 RMK A01 T00291016  RH  073%=      5-min Rain = 0
KPMS 160840Z 22008KT 03/M02 A3002 RMK A01 T00281016  RH  073%=      5-min Rain = 0
KPMS 160845Z 22008KT 03/M02 A3002 RMK A01 T00271017  RH  074%=      5-min Rain = 0
KPMS 160850Z 22009KT 03/M02 A3002 RMK A01 T00271017  RH  073%=      5-min Rain = 0
KPMS 160855Z 22009KT 03/M02 A3002 RMK A01 T00251017  RH  074%=      5-min Rain = 0
KPMS 160900Z 22009KT 02/M02 A3002 RMK A01 T00241018  RH  075%=      5-min Rain = 0
KPMS 160905Z 22010KT 02/M02 A3002 RMK A01 T00231019  RH  075%=      5-min Rain = 0
KPMS 160910Z 22009KT 02/M02 A3001 RMK A01 T00231019  RH  075%=      5-min Rain = 0
KPMS 160915Z 23008KT 02/M02 A3001 RMK A01 T00221020  RH  075%=      5-min Rain = 0
KPMS 160920Z 23008KT 02/M02 A3001 RMK A01 T00221020  RH  074%=      5-min Rain = 0
KPMS 160925Z 23007KT 02/M02 A3001 RMK A01 T00231020  RH  074%=      5-min Rain = 0
KPMS 160930Z 22008KT 02/M02 A3001 RMK A01 T00231020  RH  074%=      5-min Rain = 0
KPMS 160935Z 22008KT 02/M02 A3001 RMK A01 T00231020  RH  074%=      5-min Rain = 0
KPMS 160940Z 23009KT 02/M02 A3001 RMK A01 T00221020  RH  075%=      5-min Rain = 0
KPMS 160945Z 23008KT 02/M02 A3001 RMK A01 T00211020  RH  075%=      5-min Rain = 0
KPMS 160950Z 23007KT 02/M02 A3001 RMK A01 T00211021  RH  075%=      5-min Rain = 0
KPMS 160955Z 23007KT 02/M02 A30 RMK A01 T00211021  RH  074%=      5-min Rain = 0
KPMS 161000Z 24006KT 02/M02 A30 RMK A01 T00211022  RH  074%=      5-min Rain = 0
KPMS 161005Z 23005KT 02/M02 A30 RMK A01 T00191022  RH  075%=      5-min Rain = 0
KPMS 161010Z 23005KT 02/M02 A30 RMK A01 T00181023  RH  075%=      5-min Rain = 0
KPMS 161015Z 24005KT 02/M02 A30 RMK A01 T00191024  RH  074%=      5-min Rain = 0
KPMS 161020Z 25008KT 03/M02 A30 RMK A01 T00281024  RH  069%=      5-min Rain = 0
KPMS 161025Z 25009KT 04/M03 A2999 RMK A01 T00401025  RH  063%=      5-min Rain = 0
KPMS 161030Z 25009KT 04/M03 A2999 RMK A01 T00441027  RH  061%=      5-min Rain = 0
KPMS 161035Z 25008KT 04/M03 A2999 RMK A01 T00441027  RH  060%=      5-min Rain = 0
KPMS 161040Z 25007KT 04/M03 A2999 RMK A01 T00421027  RH  061%=      5-min Rain = 0
KPMS 161045Z 25008KT 04/M03 A2999 RMK A01 T00401027  RH  063%=      5-min Rain = 0
KPMS 161050Z 25008KT 04/M03 A2999 RMK A01 T00381027  RH  063%=      5-min Rain = 0
KPMS 161055Z 25009KT 04/M03 A2999 RMK A01 T00391026  RH  063%=      5-min Rain = 0
KPMS 161100Z 25009KT 04/M03 A2998 RMK A01 T00381026  RH  064%=      5-min Rain = 0
KPMS 161105Z 25011KT 04/M03 A2998 RMK A01 T00411026  RH  063%=      5-min Rain = 0
KPMS 161110Z 25012KT 04/M03 A2998 RMK A01 T00441026  RH  061%=      5-min Rain = 0
KPMS 161115Z 25013G18KT 05/M03 A2998 RMK A01 T00451026  RH  061%=      5-min Rain = 0
KPMS 161120Z 25013KT 05/M03 A2998 RMK A01 T00461026  RH  060%=      5-min Rain = 0
KPMS 161125Z 25013KT 05/M03 A2998 RMK A01 T00471026  RH  060%=      5-min Rain = 0
KPMS 161130Z 25012KT 05/M03 A2998 RMK A01 T00471026  RH  060%=      5-min Rain = 0
KPMS 161135Z 25012KT 05/M03 A2998 RMK A01 T00471026  RH  060%=      5-min Rain = 0
KPMS 161140Z 25010KT 04/M03 A2998 RMK A01 T00441026  RH  061%=      5-min Rain = 0
KPMS 161145Z 25011KT 04/M03 A2998 RMK A01 T00431026  RH  061%=      5-min Rain = 0
KPMS 161150Z 25011KT 04/M03 A2998 RMK A01 T00431027  RH  061%=      5-min Rain = 0
KPMS 161155Z 25011KT 04/M03 A2998 RMK A01 T00441027  RH  061%=      5-min Rain = 0
KPMS 161200Z 25010KT 04/M03 A2998 RMK A01 T00441027  RH  061%=      5-min Rain = 0
KPMS 161205Z 25010KT 05/M03 A2998 RMK A01 T00451027  RH  060%=      5-min Rain = 0
KPMS 161210Z 25010KT 04/M03 A2998 RMK A01 T00431027  RH  061%=      5-min Rain = 0
KPMS 161215Z 25010KT 04/M03 A2997 RMK A01 T00391027  RH  063%=      5-min Rain = 0
KPMS 161220Z 25011KT 04/M03 A2997 RMK A01 T00381027  RH  063%=      5-min Rain = 0
KPMS 161225Z 25011KT 04/M03 A2997 RMK A01 T00381027  RH  063%=      5-min Rain = 0
KPMS 161230Z 25010G15KT 04/M03 A2997 RMK A01 T00371027  RH  064%=      5-min Rain = 0
KPMS 161235Z 24011G16KT 04/M03 A2997 RMK A01 T00381026  RH  063%=      5-min Rain = 0
KPMS 161240Z 24012KT 04/M03 A2997 RMK A01 T00411026  RH  062%=      5-min Rain = 0
KPMS 161245Z 25012KT 04/M03 A2997 RMK A01 T00441027  RH  061%=      5-min Rain = 0
KPMS 161250Z 25013KT 05/M03 A2996 RMK A01 T00461027  RH  060%=      5-min Rain = 0
KPMS 161255Z 25012KT 05/M03 A2996 RMK A01 T00471027  RH  059%=      5-min Rain = 0
KPMS 161300Z 25011KT 05/M03 A2996 RMK A01 T00461027  RH  060%=      5-min Rain = 0
KPMS 161305Z 25012KT 05/M03 A2996 RMK A01 T00461027  RH  060%=      5-min Rain = 0
KPMS 161310Z 25011KT 05/M03 A2996 RMK A01 T00461027  RH  060%=      5-min Rain = 0
KPMS 161315Z 25011KT 05/M03 A2996 RMK A01 T00461027  RH  060%=      5-min Rain = 0
KPMS 161320Z 25010KT 04/M03 A2996 RMK A01 T00441027  RH  061%=      5-min Rain = 0
KPMS 161325Z 25011KT 04/M03 A2997 RMK A01 T00411026  RH  062%=      5-min Rain = 0
KPMS 161330Z 25011KT 04/M03 A2997 RMK A01 T00391026  RH  063%=      5-min Rain = 0
KPMS 161335Z 25011KT 04/M03 A2997 RMK A01 T00371026  RH  064%=      5-min Rain = 0
KPMS 161340Z 25010KT 04/M03 A2997 RMK A01 T00351026  RH  065%=      5-min Rain = 0
KPMS 161345Z 24008KT 03/M03 A2997 RMK A01 T00321025  RH  067%=      5-min Rain = 0
KPMS 161350Z 24007KT 03/M03 A2997 RMK A01 T00311025  RH  068%=      5-min Rain = 0
KPMS 161355Z 24007KT 03/M02 A2997 RMK A01 T00311024  RH  068%=      5-min Rain = 0
KPMS 161400Z 24007KT 03/M02 A2997 RMK A01 T00291023  RH  069%=      5-min Rain = 0
KPMS 161405Z 24007KT 03/M02 A2997 RMK A01 T00291023  RH  069%=      5-min Rain = 0
KPMS 161410Z 24007KT 03/M02 A2997 RMK A01 T00311022  RH  069%=      5-min Rain = 0
KPMS 161415Z 24007KT 03/M02 A2997 RMK A01 T00341021  RH  068%=      5-min Rain = 0
KPMS 161420Z 24007KT 04/M02 A2997 RMK A01 T00371020  RH  067%=      5-min Rain = 0
KPMS 161425Z 24008KT 04/M02 A2997 RMK A01 T00401019  RH  066%=      5-min Rain = 0
KPMS 161430Z 24008KT 04/M02 A2997 RMK A01 T00431017  RH  066%=      5-min Rain = 0
KPMS 161435Z 24008KT 05/M02 A2997 RMK A01 T00451016  RH  065%=      5-min Rain = 0
KPMS 161440Z 24007KT 05/M01 A2997 RMK A01 T00471014  RH  065%=      5-min Rain = 0
KPMS 161445Z 24007KT 05/M01 A2997 RMK A01 T00491013  RH  065%=      5-min Rain = 0
KPMS 161450Z 24007KT 05/M01 A2997 RMK A01 T00511011  RH  065%=      5-min Rain = 0
KPMS 161455Z 24007KT 06/M01 A2997 RMK A01 T00551009  RH  064%=      5-min Rain = 0
KPMS 161500Z 24007KT 06/M01 A2997 RMK A01 T00581009  RH  063%=      5-min Rain = 0
KPMS 161505Z 23007KT 06/M01 A2997 RMK A01 T00611007  RH  062%=      5-min Rain = 0
KPMS 161510Z 23008KT 06/M01 A2997 RMK A01 T00641006  RH  061%=      5-min Rain = 0
KPMS 161515Z 24008KT 07/M01 A2997 RMK A01 T00681005  RH  060%=      5-min Rain = 0
KPMS 161520Z 24008KT 07/M00 A2997 RMK A01 T00731003  RH  059%=      5-min Rain = 0
KPMS 161525Z 24008G13KT 08/M00 A2997 RMK A01 T00791002  RH  057%=      5-min Rain = 0
KPMS 161530Z 24009G15KT 08/M00 A2997 RMK A01 T00821002  RH  056%=      5-min Rain = 0
KPMS 161535Z 25009KT 09/M00 A2997 RMK A01 T00861002  RH  054%=      5-min Rain = 0
KPMS 161540Z 25009G14KT 09/M00 A2997 RMK A01 T00891001  RH  054%=      5-min Rain = 0
KPMS 161545Z 24009KT 09/00 A2997 RMK A01 T00920001  RH  053%=      5-min Rain = 0
KPMS 161550Z 24009KT 09/00 A2997 RMK A01 T00940002  RH  053%=      5-min Rain = 0
KPMS 161555Z 24009KT 10/01 A2997 RMK A01 T00960005  RH  054%=      5-min Rain = 0
KPMS 161600Z 22006KT 10/02 A2997 RMK A01 T00970016  RH  058%=      5-min Rain = 0
KPMS 161605Z 22006KT 09/02 A2997 RMK A01 T00940019  RH  060%=      5-min Rain = 0
KPMS 161610Z 23006KT 09/02 A2997 RMK A01 T00910018  RH  061%=      5-min Rain = 0
KPMS 161615Z 24006KT 09/02 A2997 RMK A01 T00910018  RH  061%=      5-min Rain = 0
KPMS 161620Z 23006KT 09/02 A2997 RMK A01 T00930019  RH  061%=      5-min Rain = 0
KPMS 161625Z 24005KT 10/02 A2996 RMK A01 T00990020  RH  059%=      5-min Rain = 0
KPMS 161630Z 24008KT 11/02 A2996 RMK A01 T01050015  RH  054%=      5-min Rain = 0
KPMS 161635Z 24009KT 11/01 A2996 RMK A01 T01070014  RH  053%=      5-min Rain = 0
KPMS 161640Z 25008KT 11/02 A2996 RMK A01 T01110016  RH  052%=      5-min Rain = 0
KPMS 161645Z 23007KT 11/02 A2996 RMK A01 T01140019  RH  053%=      5-min Rain = 0
KPMS 161650Z 23007KT 12/02 A2996 RMK A01 T01160020  RH  053%=      5-min Rain = 0
KPMS 161655Z 23006KT 12/03 A2995 RMK A01 T01200026  RH  053%=      5-min Rain = 0
KPMS 161700Z 21006KT 12/04 A2995 RMK A01 T01230035  RH  056%=      5-min Rain = 0
KPMS 161705Z 21006KT 13/03 A2995 RMK A01 T01270032  RH  053%=      5-min Rain = 0
KPMS 161710Z 22006KT 13/03 A2995 RMK A01 T01300034  RH  053%=      5-min Rain = 0
KPMS 161715Z 22005KT 13/04 A2995 RMK A01 T01340035  RH  052%=      5-min Rain = 0
KPMS 161720Z 22005KT 14/03 A2994 RMK A01 T01360034  RH  051%=      5-min Rain = 0
KPMS 161725Z 21006KT 14/04 A2995 RMK A01 T01390039  RH  051%=      5-min Rain = 0
KPMS 161730Z 21007KT 14/04 A2994 RMK A01 T01430042  RH  051%=      5-min Rain = 0
KPMS 161735Z 20007KT 15/04 A2994 RMK A01 T01450040  RH  050%=      5-min Rain = 0
KPMS 161740Z 20008KT 15/04 A2994 RMK A01 T01470039  RH  049%=      5-min Rain = 0
KPMS 161745Z 20010KT 15/04 A2994 RMK A01 T01480038  RH  048%=      5-min Rain = 0
KPMS 161750Z 21009KT 15/04 A2994 RMK A01 T01480038  RH  048%=      5-min Rain = 0
KPMS 161755Z 21010KT 15/04 A2994 RMK A01 T01490036  RH  047%=      5-min Rain = 0
KPMS 161800Z 22010G15KT 15/03 A2994 RMK A01 T01500034  RH  046%=      5-min Rain = 0
KPMS 161805Z 21010KT 15/04 A2993 RMK A01 T01510041  RH  048%=      5-min Rain = 0
KPMS 161810Z 22010G15KT 15/04 A2993 RMK A01 T01540039  RH  047%=      5-min Rain = 0
KPMS 161815Z 22010KT 16/03 A2992 RMK A01 T01550034  RH  045%=      5-min Rain = 0
KPMS 161820Z 21009KT 16/04 A2992 RMK A01 T01560039  RH  046%=      5-min Rain = 0
KPMS 161825Z 21011G16KT 16/04 A2992 RMK A01 T01600039  RH  045%=      5-min Rain = 0
KPMS 161830Z 22011G16KT 16/03 A2992 RMK A01 T01600030  RH  042%=      5-min Rain = 0
KPMS 161835Z 21013KT 16/03 A2992 RMK A01 T01610033  RH  043%=      5-min Rain = 0
KPMS 161840Z 22012KT 16/02 A2991 RMK A01 T01610024  RH  040%=      5-min Rain = 0
KPMS 161845Z 22010G18KT 17/03 A2991 RMK A01 T01670032  RH  041%=      5-min Rain = 0
KPMS 161850Z 22012G17KT 17/02 A2991 RMK A01 T01670016  RH  036%=      5-min Rain = 0
KPMS 161855Z 21012G19KT 17/02 A2991 RMK A01 T01710024  RH  038%=      5-min Rain = 0
KPMS 161900Z 21012KT 17/03 A2991 RMK A01 T01720027  RH  038%=      5-min Rain = 0
KPMS 161905Z 22011KT 17/03 A299 RMK A01 T01700025  RH  038%=      5-min Rain = 0
KPMS 161910Z 21010G18KT 17/03 A299 RMK A01 T01710030  RH  039%=      5-min Rain = 0
KPMS 161915Z 22013G19KT 17/02 A2989 RMK A01 T01710024  RH  038%=      5-min Rain = 0
KPMS 161920Z 21013G18KT 17/02 A2989 RMK A01 T01720017  RH  036%=      5-min Rain = 0
KPMS 161925Z 22012G17KT 17/02 A2989 RMK A01 T01740016  RH  035%=      5-min Rain = 0
KPMS 161930Z 21011KT 18/02 A2989 RMK A01 T01770015  RH  034%=      5-min Rain = 0
KPMS 161935Z 21011G16KT 18/02 A2989 RMK A01 T01780016  RH  034%=      5-min Rain = 0
KPMS 161940Z 21013KT 18/01 A2988 RMK A01 T01790008  RH  032%=      5-min Rain = 0
KPMS 161945Z 21014G20KT 18/01 A2988 RMK A01 T01780005  RH  032%=      5-min Rain = 0
KPMS 161950Z 21012G18KT 18/01 A2988 RMK A01 T01790009  RH  032%=      5-min Rain = 0
KPMS 161955Z 22011G16KT 18/01 A2988 RMK A01 T01790007  RH  032%=      5-min Rain = 0
KPMS 162000Z 22013G18KT 18/00 A2987 RMK A01 T01800002  RH  030%=      5-min Rain = 0
KPMS 162005Z 22011G16KT 18/00 A2987 RMK A01 T018200-0  RH  029%=      5-min Rain = 0
KPMS 162010Z 22012KT 18/01 A2987 RMK A01 T01830007  RH  031%=      5-min Rain = 0
KPMS 162015Z 22012KT 18/01 A2987 RMK A01 T01810007  RH  031%=      5-min Rain = 0
KPMS 162020Z 20013G20KT 18/00 A2986 RMK A01 T01830002  RH  030%=      5-min Rain = 0
KPMS 162025Z 20011G16KT 19/01 A2986 RMK A01 T01850010  RH  031%=      5-min Rain = 0
KPMS 162030Z 19013G18KT 19/01 A2986 RMK A01 T01860010  RH  031%=      5-min Rain = 0
KPMS 162035Z 20012G19KT 19/01 A2986 RMK A01 T01880011  RH  031%=      5-min Rain = 0
KPMS 162040Z 20013KT 19/01 A2986 RMK A01 T01880005  RH  030%=      5-min Rain = 0
KPMS 162045Z 21012G19KT 19/01 A2986 RMK A01 T01900006  RH  029%=      5-min Rain = 0
KPMS 162050Z 22012G17KT 19/01 A2986 RMK A01 T01890005  RH  029%=      5-min Rain = 0
KPMS 162055Z 20011G18KT 19/01 A2986 RMK A01 T01890005  RH  029%=      5-min Rain = 0
KPMS 162100Z 21011G16KT 19/01 A2986 RMK A01 T01910010  RH  030%=      5-min Rain = 0
KPMS 162105Z 21013G18KT 19/00 A2985 RMK A01 T01910003  RH  029%=      5-min Rain = 0
KPMS 162110Z 21013KT 19/M01 A2985 RMK A01 T01901006  RH  027%=      5-min Rain = 0
KPMS 162115Z 20013KT 19/M00 A2985 RMK A01 T01901004  RH  027%=      5-min Rain = 0
KPMS 162120Z 20011G17KT 19/00 A2985 RMK A01 T01910001  RH  028%=      5-min Rain = 0
KPMS 162125Z 21011KT 19/00 A2984 RMK A01 T01920003  RH  028%=      5-min Rain = 0
KPMS 162130Z 20011KT 19/01 A2984 RMK A01 T01940007  RH  029%=      5-min Rain = 0
KPMS 162135Z 19013G18KT 19/00 A2984 RMK A01 T01910004  RH  029%=      5-min Rain = 0
KPMS 162140Z 19011KT 19/00 A2984 RMK A01 T01900003  RH  029%=      5-min Rain = 0
KPMS 162145Z 19013G19KT 19/M00 A2984 RMK A01 T01911002  RH  028%=      5-min Rain = 0
KPMS 162150Z 19014G19KT 19/M01 A2984 RMK A01 T01891005  RH  027%=      5-min Rain = 0
KPMS 162155Z 19014KT 19/M01 A2984 RMK A01 T01891010  RH  026%=      5-min Rain = 0
KPMS 162200Z 20013G18KT 19/M01 A2983 RMK A01 T01881008  RH  027%=      5-min Rain = 0
KPMS 162205Z 19013G18KT 19/M00 A2983 RMK A01 T01901003  RH  028%=      5-min Rain = 0
KPMS 162210Z 19014G19KT 19/M01 A2983 RMK A01 T01881008  RH  027%=      5-min Rain = 0
KPMS 162215Z 19014KT 19/M02 A2983 RMK A01 T01881016  RH  025%=      5-min Rain = 0
KPMS 162220Z 20013G18KT 19/M02 A2983 RMK A01 T01861016  RH  026%=      5-min Rain = 0
KPMS 162225Z 18013KT 19/M01 A2983 RMK A01 T01871006  RH  027%=      5-min Rain = 0
KPMS 162230Z 20013KT 19/M01 A2983 RMK A01 T01871009  RH  027%=      5-min Rain = 0
KPMS 162235Z 19012G17KT 19/M01 A2983 RMK A01 T01871006  RH  027%=      5-min Rain = 0
KPMS 162240Z 19013KT 19/M01 A2983 RMK A01 T01851006  RH  028%=      5-min Rain = 0
KPMS 162245Z 19015G20KT 18/M01 A2982 RMK A01 T01841007  RH  028%=      5-min Rain = 0
KPMS 162250Z 19014G19KT 18/M01 A2982 RMK A01 T01831005  RH  028%=      5-min Rain = 0
KPMS 162255Z 19014KT 18/M00 A2982 RMK A01 T01821002  RH  029%=      5-min Rain = 0
KPMS 162300Z 18014G19KT 18/M00 A2982 RMK A01 T01821004  RH  029%=      5-min Rain = 0
KPMS 162305Z 19013KT 18/M01 A2982 RMK A01 T01801006  RH  029%=      5-min Rain = 0
KPMS 162310Z 19012KT 18/M00 A2982 RMK A01 T01791004  RH  029%=      5-min Rain = 0
KPMS 162315Z 19012G17KT 18/M01 A2982 RMK A01 T01781007  RH  029%=      5-min Rain = 0
KPMS 162320Z 20013KT 18/M01 A2982 RMK A01 T01771010  RH  028%=      5-min Rain = 0
KPMS 162325Z 19013KT 18/M01 A2982 RMK A01 T01761005  RH  030%=      5-min Rain = 0
KPMS 162330Z 19013KT 17/M01 A2982 RMK A01 T01741005  RH  030%=      5-min Rain = 0
KPMS 162335Z 19012KT 17/00 A2982 RMK A01 T01730001  RH  032%=      5-min Rain = 0
KPMS 162340Z 19012KT 17/00 A2982 RMK A01 T01710001  RH  032%=      5-min Rain = 0
KPMS 162345Z 19010KT 17/01 A2982 RMK A01 T01680006  RH  034%=      5-min Rain = 0
KPMS 162350Z 19011KT 17/01 A2982 RMK A01 T01650006  RH  035%=      5-min Rain = 0
KPMS 162355Z 19010KT 16/01 A2982 RMK A01 T01610011  RH  037%=      5-min Rain = 0
KPMS 170000Z 19010KT 16/01 A2982 RMK A01 T01560014  RH  039%=      5-min Rain = 0
KPMS 170005Z 18009G14KT 15/01 A2982 RMK A01 T01530014  RH  039%=      5-min Rain = 0
KPMS 170010Z 18009KT 15/02 A2982 RMK A01 T01510015  RH  040%=      5-min Rain = 0
KPMS 170015Z 18008KT 15/02 A2982 RMK A01 T01460019  RH  043%=      5-min Rain = 0
KPMS 170020Z 18009KT 14/02 A2982 RMK A01 T01420022  RH  045%=      5-min Rain = 0
KPMS 170025Z 18008KT 14/02 A2982 RMK A01 T01390024  RH  046%=      5-min Rain = 0
KPMS 170030Z 18008KT 13/03 A2982 RMK A01 T01330025  RH  049%=      5-min Rain = 0
KPMS 170035Z 18007KT 13/03 A2982 RMK A01 T01260025  RH  051%=      5-min Rain = 0
KPMS 170040Z 18007KT 12/02 A2982 RMK A01 T01180023  RH  053%=      5-min Rain = 0
KPMS 170045Z 18007KT 11/02 A2982 RMK A01 T01110021  RH  055%=      5-min Rain = 0
KPMS 170050Z 17007KT 10/02 A2982 RMK A01 T01040019  RH  056%=      5-min Rain = 0
KPMS 170055Z 18008KT 10/02 A2982 RMK A01 T00960018  RH  059%=      5-min Rain = 0
KPMS 170100Z 18008KT 10/02 A2982 RMK A01 T00960020  RH  059%=      5-min Rain = 0
KPMS 170105Z 18008KT 10/02 A2982 RMK A01 T00980021  RH  059%=      5-min Rain = 0
KPMS 170110Z 18009KT 10/02 A2982 RMK A01 T01020023  RH  058%=      5-min Rain = 0
KPMS 170115Z 18010KT 10/02 A2982 RMK A01 T01040023  RH  058%=      5-min Rain = 0
KPMS 170120Z 18010KT 10/02 A2982 RMK A01 T01030022  RH  058%=      5-min Rain = 0
KPMS 170125Z 18009KT 10/02 A2982 RMK A01 T01010023  RH  059%=      5-min Rain = 0
KPMS 170130Z 18010KT 10/02 A2982 RMK A01 T00980022  RH  060%=      5-min Rain = 0
KPMS 170135Z 18010KT 10/02 A2982 RMK A01 T00980021  RH  060%=      5-min Rain = 0
KPMS 170140Z 18009KT 09/02 A2982 RMK A01 T00940021  RH  061%=      5-min Rain = 0
KPMS 170145Z 18010KT 09/02 A2982 RMK A01 T00890021  RH  063%=      5-min Rain = 0
KPMS 170150Z 18009KT 09/02 A2982 RMK A01 T00900021  RH  063%=      5-min Rain = 0
KPMS 170155Z 19008KT 09/02 A2982 RMK A01 T00850020  RH  064%=      5-min Rain = 0
KPMS 170200Z 18007KT 08/02 A2982 RMK A01 T00810018  RH  065%=      5-min Rain = 0
KPMS 170205Z 18007KT 07/02 A2982 RMK A01 T00740016  RH  068%=      5-min Rain = 0
KPMS 170210Z 19007KT 07/02 A2982 RMK A01 T00700016  RH  069%=      5-min Rain = 0
KPMS 170215Z 19007KT 07/02 A2982 RMK A01 T00710017  RH  069%=      5-min Rain = 0
KPMS 170220Z 19007KT 07/02 A2982 RMK A01 T00710017  RH  069%=      5-min Rain = 0
KPMS 170225Z 20007KT 07/02 A2982 RMK A01 T00720016  RH  069%=      5-min Rain = 0
KPMS 170230Z 19007KT 07/02 A2982 RMK A01 T00720015  RH  068%=      5-min Rain = 0
KPMS 170235Z 18007KT 07/01 A2982 RMK A01 T00660014  RH  070%=      5-min Rain = 0
KPMS 170240Z 18007KT 06/01 A2982 RMK A01 T00630013  RH  071%=      5-min Rain = 0
KPMS 170245Z 18008KT 06/01 A2982 RMK A01 T00600011  RH  072%=      5-min Rain = 0
KPMS 170250Z 18008KT 06/01 A2982 RMK A01 T00590012  RH  073%=      5-min Rain = 0
KPMS 170255Z 17008KT 06/01 A2982 RMK A01 T00570010  RH  073%=      5-min Rain = 0
KPMS 170300Z 17008KT 06/01 A2982 RMK A01 T00560010  RH  073%=      5-min Rain = 0
KPMS 170305Z 18008KT 06/01 A2982 RMK A01 T00580010  RH  072%=      5-min Rain = 0
KPMS 170310Z 18008KT 06/01 A2982 RMK A01 T00570008  RH  072%=      5-min Rain = 0
KPMS 170315Z 17008KT 06/01 A2982 RMK A01 T00550007  RH  072%=      5-min Rain = 0
KPMS 170320Z 17008KT 05/01 A2982 RMK A01 T00500005  RH  073%=      5-min Rain = 0
KPMS 170325Z 18009KT 06/01 A2982 RMK A01 T00600011  RH  072%=      5-min Rain = 0
KPMS 170330Z 18009KT 07/01 A2982 RMK A01 T00700012  RH  068%=      5-min Rain = 0
KPMS 170335Z 18010KT 07/01 A2982 RMK A01 T00720013  RH  067%=      5-min Rain = 0
KPMS 170340Z 18010KT 07/01 A2982 RMK A01 T00740014  RH  066%=      5-min Rain = 0
KPMS 170345Z 18010KT 07/01 A2982 RMK A01 T00730014  RH  067%=      5-min Rain = 0
KPMS 170350Z 18011KT 08/01 A2982 RMK A01 T00760013  RH  065%=      5-min Rain = 0
KPMS 170355Z 18011KT 08/01 A2982 RMK A01 T00750013  RH  066%=      5-min Rain = 0
KPMS 170400Z 18011KT 07/01 A2982 RMK A01 T00730012  RH  066%=      5-min Rain = 0
KPMS 170405Z 18009KT 07/01 A2982 RMK A01 T00700012  RH  067%=      5-min Rain = 0
KPMS 170410Z 18009KT 07/01 A2982 RMK A01 T00680011  RH  068%=      5-min Rain = 0
KPMS 170415Z 18007KT 06/01 A2982 RMK A01 T00640009  RH  069%=      5-min Rain = 0
KPMS 170420Z 18007KT 06/01 A2982 RMK A01 T00580008  RH  071%=      5-min Rain = 0
KPMS 170425Z 18007KT 05/01 A2981 RMK A01 T00500006  RH  074%=      5-min Rain = 0
KPMS 170430Z 18007KT 05/01 A2981 RMK A01 T00500007  RH  075%=      5-min Rain = 0
KPMS 170435Z 18007KT 05/01 A2981 RMK A01 T00490006  RH  075%=      5-min Rain = 0
KPMS 170440Z 19006KT 05/01 A2981 RMK A01 T00460006  RH  076%=      5-min Rain = 0
KPMS 170445Z 19006KT 05/01 A2981 RMK A01 T00450006  RH  077%=      5-min Rain = 0
KPMS 170450Z 19006KT 04/01 A2981 RMK A01 T00440006  RH  077%=      5-min Rain = 0
KPMS 170455Z 19006KT 04/00 A2981 RMK A01 T00420004  RH  077%=      5-min Rain = 0
KPMS 170500Z 19005KT 04/00 A2981 RMK A01 T00390002  RH  078%=      5-min Rain = 0
KPMS 170505Z 19006KT 03/00 A2981 RMK A01 T003400-0  RH  079%=      5-min Rain = 0
KPMS 170510Z 19007KT 04/00 A298 RMK A01 T00370003  RH  080%=      5-min Rain = 0
KPMS 170515Z 19008KT 05/00 A298 RMK A01 T00460004  RH  075%=      5-min Rain = 0
KPMS 170520Z 19009KT 05/00 A298 RMK A01 T00520004  RH  072%=      5-min Rain = 0
KPMS 170525Z 19010KT 05/00 A2979 RMK A01 T00540004  RH  071%=      5-min Rain = 0
KPMS 170530Z 19011KT 06/00 A2979 RMK A01 T00550003  RH  070%=      5-min Rain = 0
KPMS 170535Z 19010KT 06/00 A2979 RMK A01 T00560003  RH  070%=      5-min Rain = 0
KPMS 170540Z 18010KT 05/00 A2979 RMK A01 T00540002  RH  070%=      5-min Rain = 0
KPMS 170545Z 18010KT 05/00 A2979 RMK A01 T00540002  RH  070%=      5-min Rain = 0
KPMS 170550Z 18010KT 05/00 A2979 RMK A01 T00540001  RH  070%=      5-min Rain = 0
KPMS 170555Z 18010KT 05/00 A2979 RMK A01 T00530001  RH  070%=      5-min Rain = 0

Page generated in 0.0098 seconds.